createdAt,value
2023-03-10T00:00:23.090Z,18.87
2023-03-10T00:02:51.617Z,20.33
2023-03-10T00:05:21.601Z,18.90
2023-03-10T00:07:50.694Z,19.03
2023-03-10T00:10:19.115Z,18.57
2023-03-10T00:12:46.781Z,19.15
2023-03-10T00:15:14.691Z,19.57
2023-03-10T00:17:42.632Z,18.53
2023-03-10T00:20:12.900Z,19.23
2023-03-10T00:22:42.615Z,19.80
2023-03-10T00:25:11.416Z,21.53
2023-03-10T00:27:39.896Z,19.03
2023-03-10T00:30:09.291Z,20.70
2023-03-10T00:32:37.224Z,19.83
2023-03-10T00:35:06.132Z,20.30
2023-03-10T00:37:37.546Z,19.37
2023-03-10T00:40:09.857Z,20.43
2023-03-10T00:42:37.549Z,20.07
2023-03-10T00:45:05.856Z,18.53
2023-03-10T00:47:33.594Z,20.40
2023-03-10T00:50:01.451Z,20.47
2023-03-10T00:52:32.917Z,18.80
2023-03-10T00:55:00.591Z,18.77
2023-03-10T00:57:29.653Z,20.37
2023-03-10T00:59:57.861Z,19.60
2023-03-10T01:02:25.524Z,18.40
2023-03-10T01:04:53.186Z,18.13
2023-03-10T01:07:20.871Z,19.20
2023-03-10T01:09:48.546Z,19.47
2023-03-10T01:12:16.359Z,18.20
2023-03-10T01:14:45.789Z,18.50
2023-03-10T01:17:13.492Z,17.83
2023-03-10T01:19:41.201Z,18.83
2023-03-10T01:22:09.114Z,17.83
2023-03-10T01:24:36.753Z,18.93
2023-03-10T01:27:04.597Z,18.83
2023-03-10T01:29:32.314Z,18.63
2023-03-10T01:32:01.783Z,18.33
2023-03-10T01:34:31.704Z,19.60
2023-03-10T01:36:59.537Z,19.60
2023-03-10T01:39:27.322Z,19.00
2023-03-10T01:41:55.040Z,19.73
2023-03-10T01:44:22.846Z,19.77
2023-03-10T01:46:54.335Z,18.87
2023-03-10T01:49:41.207Z,18.43
2023-03-10T01:52:11.986Z,19.07
2023-03-10T01:54:46.426Z,19.17
2023-03-10T01:57:15.486Z,19.57
2023-03-10T01:59:43.197Z,20.60
2023-03-10T02:02:11.349Z,19.70
2023-03-10T02:04:43.279Z,19.17
2023-03-10T02:07:11.268Z,18.73
2023-03-10T02:09:42.282Z,19.97
2023-03-10T02:12:10.741Z,20.17
2023-03-10T02:14:38.955Z,20.30
2023-03-10T02:17:08.679Z,19.47
2023-03-10T02:19:48.675Z,17.50
2023-03-10T02:22:17.178Z,19.83
2023-03-10T02:24:52.226Z,19.47
2023-03-10T02:27:24.682Z,19.40
2023-03-10T02:29:59.706Z,19.73
2023-03-10T02:32:34.306Z,18.80
2023-03-10T02:35:02.431Z,19.17
2023-03-10T02:37:33.215Z,19.87
2023-03-10T02:40:01.137Z,19.87
2023-03-10T02:42:32.464Z,19.40
2023-03-10T02:45:00.556Z,20.40
2023-03-10T02:47:28.299Z,19.03
2023-03-10T02:49:56.007Z,20.53
2023-03-10T02:52:28.200Z,19.53
2023-03-10T02:54:56.030Z,19.87
2023-03-10T02:57:23.707Z,19.83
2023-03-10T02:59:52.990Z,20.50
2023-03-10T03:02:20.723Z,20.03
2023-03-10T03:04:48.698Z,18.47
2023-03-10T03:07:16.424Z,19.20
2023-03-10T03:09:44.142Z,19.40
2023-03-10T03:12:11.910Z,19.57
2023-03-10T03:14:39.689Z,19.60
2023-03-10T03:17:09.443Z,19.50
2023-03-10T03:19:37.348Z,19.87
2023-03-10T03:22:05.178Z,20.77
2023-03-10T03:24:33.095Z,19.53
2023-03-10T03:27:00.829Z,20.37
2023-03-10T03:29:30.122Z,20.63
2023-03-10T03:31:58.673Z,18.47
2023-03-10T03:34:31.984Z,19.93
2023-03-10T03:37:03.250Z,19.13
2023-03-10T03:39:37.706Z,18.17
2023-03-10T03:42:08.525Z,18.77
2023-03-10T03:44:44.781Z,18.70
2023-03-10T03:47:13.299Z,17.80
2023-03-10T03:49:42.622Z,19.17
2023-03-10T03:52:12.082Z,18.73
2023-03-10T03:54:39.806Z,19.43
2023-03-10T03:57:07.535Z,18.73
2023-03-10T03:59:36.306Z,18.33
2023-03-10T04:02:04.058Z,18.97
2023-03-10T04:04:32.552Z,19.30
2023-03-10T04:07:02.098Z,18.07
2023-03-10T04:09:31.002Z,18.90
2023-03-10T04:11:59.053Z,16.73
2023-03-10T04:14:27.258Z,17.50
2023-03-10T04:16:56.944Z,16.53
2023-03-10T04:19:24.721Z,18.53
2023-03-10T04:21:57.529Z,18.13
2023-03-10T04:24:27.307Z,18.87
2023-03-10T04:26:55.449Z,18.70
2023-03-10T04:29:24.433Z,18.60
2023-03-10T04:32:04.725Z,18.73
2023-03-10T04:34:34.765Z,17.30
2023-03-10T04:37:03.356Z,18.20
2023-03-10T04:39:32.427Z,18.33
2023-03-10T04:42:00.232Z,19.33
2023-03-10T04:44:31.368Z,19.10
2023-03-10T04:47:01.818Z,19.93
2023-03-10T04:49:29.869Z,18.80
2023-03-10T04:51:58.710Z,19.23
2023-03-10T04:54:26.560Z,19.37
2023-03-10T04:56:56.662Z,19.73
2023-03-10T04:59:24.460Z,19.93
2023-03-10T05:01:52.573Z,19.13
2023-03-10T05:04:20.751Z,20.03
2023-03-10T05:06:51.206Z,18.47
2023-03-10T05:09:36.805Z,19.57
2023-03-10T05:12:07.236Z,18.77
2023-03-10T05:14:38.109Z,18.10
2023-03-10T05:17:06.973Z,17.97
2023-03-10T05:19:35.077Z,19.90
2023-03-10T05:22:04.022Z,18.47
2023-03-10T05:24:34.572Z,18.47
2023-03-10T05:27:03.387Z,18.80
2023-03-10T05:29:33.131Z,19.53
2023-03-10T05:32:09.042Z,19.67
2023-03-10T05:34:39.913Z,19.07
2023-03-10T05:37:08.585Z,19.17
2023-03-10T05:39:36.464Z,19.57
2023-03-10T05:42:09.565Z,17.93
2023-03-10T05:44:39.354Z,18.63
2023-03-10T05:47:08.334Z,18.33
2023-03-10T05:49:38.633Z,18.60
2023-03-10T05:52:07.678Z,17.70
2023-03-10T05:54:36.087Z,17.67
2023-03-10T05:57:04.514Z,19.27
2023-03-10T05:59:33.418Z,17.20
2023-03-10T06:02:02.529Z,17.10
2023-03-10T06:04:33.064Z,17.80
2023-03-10T06:07:01.545Z,15.93
2023-03-10T06:09:30.279Z,20.20
2023-03-10T06:11:58.280Z,19.17
2023-03-10T06:14:26.595Z,17.23
2023-03-10T06:16:55.130Z,17.00
2023-03-10T06:19:24.925Z,16.87
2023-03-10T06:21:52.591Z,17.20
2023-03-10T06:24:20.307Z,16.40
2023-03-10T06:26:47.987Z,17.03
2023-03-10T06:29:15.996Z,16.67
2023-03-10T06:31:43.731Z,17.77
2023-03-10T06:34:11.409Z,16.37
2023-03-10T06:36:41.805Z,17.57
2023-03-10T06:39:09.933Z,15.17
2023-03-10T06:41:38.066Z,17.23
2023-03-10T06:44:06.022Z,16.93
2023-03-10T06:46:34.204Z,15.40
2023-03-10T06:49:01.905Z,14.33
2023-03-10T06:51:29.517Z,15.90
2023-03-10T06:53:58.542Z,14.13
2023-03-10T06:56:26.165Z,15.43
2023-03-10T06:58:54.530Z,26.97
2023-03-10T07:01:25.447Z,15.20
2023-03-10T07:03:53.968Z,18.03
2023-03-10T07:06:22.645Z,16.57
2023-03-10T07:08:51.466Z,15.70
2023-03-10T07:11:21.455Z,16.93
2023-03-10T07:13:49.519Z,16.70
2023-03-10T07:16:17.513Z,17.23
2023-03-10T07:18:45.482Z,17.67
2023-03-10T07:21:15.962Z,16.37
2023-03-10T07:23:43.693Z,15.80
2023-03-10T07:26:12.999Z,17.60
2023-03-10T07:28:42.709Z,16.23
2023-03-10T07:31:12.432Z,15.40
2023-03-10T07:33:40.552Z,17.60
2023-03-10T07:36:10.726Z,17.00
2023-03-10T07:38:38.845Z,17.40
2023-03-10T07:41:10.438Z,15.20
2023-03-10T07:43:38.620Z,16.70
2023-03-10T07:46:09.382Z,15.20
2023-03-10T07:48:37.257Z,14.27
2023-03-10T07:51:05.633Z,14.97
2023-03-10T07:53:33.769Z,15.17
2023-03-10T07:56:05.411Z,14.40
2023-03-10T07:58:34.197Z,15.03
2023-03-10T08:01:02.914Z,14.63
2023-03-10T08:03:32.184Z,14.20
2023-03-10T08:05:59.818Z,13.93
2023-03-10T08:08:27.737Z,13.43
2023-03-10T08:11:01.765Z,13.13
2023-03-10T08:13:29.521Z,13.07
2023-03-10T08:15:59.832Z,13.03
2023-03-10T08:18:27.917Z,13.73
2023-03-10T08:20:57.874Z,12.17
2023-03-10T08:23:26.472Z,14.37
2023-03-10T08:25:54.413Z,13.87
2023-03-10T08:28:22.109Z,14.80
2023-03-10T08:31:03.615Z,14.33
2023-03-10T08:33:32.292Z,14.13
2023-03-10T08:36:05.951Z,14.67
2023-03-10T08:38:33.668Z,14.07
2023-03-10T08:41:09.516Z,14.73
2023-03-10T08:43:37.526Z,15.40
2023-03-10T08:46:08.329Z,14.13
2023-03-10T08:48:36.483Z,14.23
2023-03-10T08:51:06.599Z,14.27
2023-03-10T08:53:34.649Z,14.20
2023-03-10T08:56:02.352Z,14.83
2023-03-10T08:58:30.254Z,14.43
2023-03-10T09:00:58.373Z,15.93
2023-03-10T09:03:27.060Z,13.50
2023-03-10T09:05:55.903Z,14.87
2023-03-10T09:08:27.407Z,15.73
2023-03-10T09:10:55.405Z,14.37
2023-03-10T09:13:23.523Z,14.80
2023-03-10T09:15:52.791Z,13.87
2023-03-10T09:18:20.972Z,13.90
2023-03-10T09:20:48.748Z,14.17
2023-03-10T09:23:17.238Z,14.10
2023-03-10T09:25:46.423Z,13.83
2023-03-10T09:28:15.019Z,19.60
2023-03-10T09:30:44.014Z,12.57
2023-03-10T09:33:17.078Z,13.83
2023-03-10T09:35:52.853Z,13.53
2023-03-10T09:38:30.843Z,12.73
2023-03-10T09:41:08.540Z,14.10
2023-03-10T09:43:39.010Z,12.67
2023-03-10T09:46:15.092Z,13.03
2023-03-10T09:48:51.100Z,12.60
2023-03-10T09:51:22.735Z,12.73
2023-03-10T09:54:01.841Z,15.00
2023-03-10T09:56:34.061Z,15.40
2023-03-10T09:59:08.083Z,12.07
2023-03-10T10:01:36.250Z,15.77
2023-03-10T10:04:08.061Z,14.57
2023-03-10T10:06:38.910Z,14.63
2023-03-10T10:09:09.852Z,14.13
2023-03-10T10:11:39.017Z,14.07
2023-03-10T10:14:27.890Z,15.67
2023-03-10T10:17:02.041Z,15.07
2023-03-10T10:19:30.307Z,17.77
2023-03-10T10:22:02.821Z,16.17
2023-03-10T10:24:30.781Z,14.37
2023-03-10T10:26:59.864Z,14.57
2023-03-10T10:29:30.351Z,14.87
2023-03-10T10:32:10.520Z,14.57
2023-03-10T10:34:40.137Z,13.80
2023-03-10T10:37:27.956Z,24.77
2023-03-10T10:39:57.278Z,16.45
2023-03-10T10:42:28.172Z,13.55
2023-03-10T10:44:57.795Z,14.43
2023-03-10T10:47:29.105Z,13.18
2023-03-10T10:50:10.564Z,14.40
2023-03-10T10:52:38.219Z,16.17
2023-03-10T10:55:06.828Z,14.87
2023-03-10T10:57:37.738Z,14.87
2023-03-10T11:00:26.572Z,14.27
2023-03-10T11:02:54.666Z,14.88
2023-03-10T11:05:24.988Z,14.45
2023-03-10T11:07:53.158Z,13.30
2023-03-10T11:10:22.425Z,13.33
2023-03-10T11:12:57.963Z,13.45
2023-03-10T11:15:30.870Z,13.10
2023-03-10T11:18:01.235Z,12.80
2023-03-10T11:20:32.691Z,13.38
2023-03-10T11:23:08.622Z,12.75
2023-03-10T11:25:39.811Z,12.87
2023-03-10T11:28:44.030Z,12.70
2023-03-10T11:31:22.986Z,13.10
2023-03-10T11:33:55.266Z,13.13
2023-03-10T11:36:43.301Z,16.70
2023-03-10T11:39:19.092Z,12.98
2023-03-10T11:41:50.240Z,14.73
2023-03-10T11:44:24.793Z,13.13
2023-03-10T11:46:59.708Z,13.63
2023-03-10T11:49:31.602Z,12.93
2023-03-10T11:52:01.026Z,12.65
2023-03-10T11:54:32.073Z,16.40
2023-03-10T11:57:02.095Z,12.23
2023-03-10T11:59:34.327Z,12.55
2023-03-10T12:02:06.578Z,12.67
2023-03-10T12:04:37.581Z,12.40
2023-03-10T12:07:07.772Z,13.07
2023-03-10T12:09:42.004Z,11.57
2023-03-10T12:12:15.446Z,11.80
2023-03-10T12:14:45.658Z,12.60
2023-03-10T12:17:15.550Z,12.38
2023-03-10T12:20:09.618Z,11.97
2023-03-10T12:22:39.057Z,15.80
2023-03-10T12:25:46.717Z,12.82
2023-03-10T12:28:26.319Z,12.60
2023-03-10T12:30:57.546Z,10.50
2023-03-10T12:33:45.186Z,11.15
2023-03-10T12:36:15.979Z,11.07
2023-03-10T12:38:49.966Z,10.77
2023-03-10T12:41:44.324Z,22.90
2023-03-10T12:44:48.805Z,12.57
2023-03-10T12:47:37.995Z,11.67
2023-03-10T12:50:23.980Z,10.47
2023-03-10T12:52:55.105Z,11.32
2023-03-10T12:55:25.131Z,11.03
2023-03-10T12:58:03.593Z,11.30
2023-03-10T13:00:40.359Z,12.23
2023-03-10T13:03:19.620Z,11.97
2023-03-10T13:05:58.911Z,11.02
2023-03-10T13:08:30.967Z,11.43
2023-03-10T13:11:00.234Z,12.77
2023-03-10T13:13:32.178Z,14.50
2023-03-10T13:16:01.023Z,15.90
2023-03-10T13:18:30.426Z,13.83
2023-03-10T13:21:01.537Z,12.37
2023-03-10T13:23:32.471Z,13.67
2023-03-10T13:26:01.550Z,14.07
2023-03-10T13:28:31.579Z,14.48
2023-03-10T13:31:19.179Z,14.50
2023-03-10T13:33:53.668Z,13.17
2023-03-10T13:36:24.129Z,13.68
2023-03-10T13:38:53.076Z,13.63
2023-03-10T13:41:20.786Z,14.73
2023-03-10T13:43:51.405Z,15.03
2023-03-10T13:46:22.742Z,16.17
2023-03-10T13:48:52.243Z,14.50
2023-03-10T13:51:22.408Z,16.23
2023-03-10T13:53:52.584Z,15.52
2023-03-10T13:56:22.991Z,14.97
2023-03-10T13:58:52.845Z,16.30
2023-03-10T14:01:23.577Z,15.87
2023-03-10T14:03:57.948Z,15.23
2023-03-10T14:06:26.600Z,15.60
2023-03-10T14:08:54.624Z,16.03
2023-03-10T14:11:25.121Z,15.73
2023-03-10T14:13:52.800Z,15.77
2023-03-10T14:16:20.523Z,15.13
2023-03-10T14:18:48.208Z,14.88
2023-03-10T14:21:33.402Z,16.13
2023-03-10T14:24:06.168Z,16.00
2023-03-10T14:26:34.553Z,15.27
2023-03-10T14:29:03.714Z,15.55
2023-03-10T14:31:31.717Z,14.97
2023-03-10T14:33:59.922Z,14.50
2023-03-10T14:36:27.808Z,14.90
2023-03-10T14:38:56.821Z,14.93
2023-03-10T14:41:25.228Z,14.10
2023-03-10T14:43:53.053Z,15.10
2023-03-10T14:46:22.138Z,14.73
2023-03-10T14:48:49.975Z,14.50
2023-03-10T14:51:32.612Z,15.13
2023-03-10T14:54:03.453Z,14.98
2023-03-10T14:56:31.542Z,15.45
2023-03-10T14:59:02.099Z,13.70
2023-03-10T15:01:30.369Z,14.02
2023-03-10T15:03:58.078Z,14.80
2023-03-10T15:06:25.702Z,15.37
2023-03-10T15:08:53.395Z,15.93
2023-03-10T15:11:36.226Z,15.63
2023-03-10T15:14:04.569Z,15.23
2023-03-10T15:16:32.195Z,16.17
2023-03-10T15:19:00.026Z,14.40
2023-03-10T15:21:27.722Z,15.63
2023-03-10T15:23:55.742Z,16.80
2023-03-10T15:26:24.978Z,14.33
2023-03-10T15:28:52.829Z,16.10
2023-03-10T15:31:20.641Z,15.60
2023-03-10T15:33:48.320Z,14.30
2023-03-10T15:36:16.120Z,15.13
2023-03-10T15:38:44.339Z,15.57
2023-03-10T15:41:12.982Z,16.07
2023-03-10T15:43:42.038Z,16.63
2023-03-10T15:46:10.361Z,16.97
2023-03-10T15:48:38.068Z,16.93
2023-03-10T15:51:09.811Z,16.70
2023-03-10T15:53:38.078Z,14.85
2023-03-10T15:56:07.573Z,15.93
2023-03-10T15:58:35.482Z,14.43
2023-03-10T16:01:08.677Z,14.98
2023-03-10T16:03:36.886Z,15.20
2023-03-10T16:06:04.889Z,16.13
2023-03-10T16:08:37.249Z,15.67
2023-03-10T16:11:09.074Z,15.73
2023-03-10T16:13:37.189Z,14.30
2023-03-10T16:16:09.085Z,15.53
2023-03-10T16:18:37.150Z,14.77
2023-03-10T16:21:05.218Z,14.80
2023-03-10T16:23:34.451Z,16.03
2023-03-10T16:26:11.009Z,15.93
2023-03-10T16:28:40.222Z,15.57
2023-03-10T16:31:10.296Z,16.10
2023-03-10T16:33:38.379Z,14.67
2023-03-10T16:36:08.839Z,15.53
2023-03-10T16:38:36.883Z,14.90
2023-03-10T16:41:05.209Z,15.60
2023-03-10T16:43:33.752Z,14.63
2023-03-10T16:46:09.249Z,15.03
2023-03-10T16:48:38.805Z,14.70
2023-03-10T16:51:19.098Z,15.13
2023-03-10T16:53:46.870Z,16.00
2023-03-10T16:56:15.184Z,15.70
2023-03-10T16:58:42.853Z,15.87
2023-03-10T17:01:12.133Z,16.17
2023-03-10T17:03:43.391Z,15.40
2023-03-10T17:06:12.756Z,15.30
2023-03-10T17:08:41.314Z,15.67
2023-03-10T17:11:17.811Z,15.17
2023-03-10T17:13:47.158Z,16.07
2023-03-10T17:16:16.995Z,16.03
2023-03-10T17:18:45.900Z,15.97
2023-03-10T17:21:15.269Z,15.33
2023-03-10T17:23:43.101Z,15.50
2023-03-10T17:26:12.003Z,16.53
2023-03-10T17:28:40.136Z,15.37
2023-03-10T17:31:08.749Z,16.03
2023-03-10T17:33:37.840Z,17.03
2023-03-10T17:36:06.593Z,16.07
2023-03-10T17:38:35.261Z,17.70
2023-03-10T17:41:05.495Z,17.57
2023-03-10T17:43:34.637Z,17.03
2023-03-10T17:46:04.455Z,16.67
2023-03-10T17:48:32.932Z,17.70
2023-03-10T17:51:02.860Z,16.97
2023-03-10T17:53:30.892Z,17.10
2023-03-10T17:55:58.909Z,18.13
2023-03-10T17:58:26.922Z,18.30
2023-03-10T18:00:54.962Z,17.03
2023-03-10T18:03:22.883Z,17.03
2023-03-10T18:05:50.582Z,18.37
2023-03-10T18:08:19.636Z,18.27
2023-03-10T18:10:47.414Z,18.53
2023-03-10T18:13:15.333Z,17.10
2023-03-10T18:15:43.094Z,17.03
2023-03-10T18:18:10.763Z,18.20
2023-03-10T18:20:38.997Z,17.07
2023-03-10T18:23:06.923Z,18.77
2023-03-10T18:25:36.195Z,17.77
2023-03-10T18:28:03.952Z,18.77
2023-03-10T18:30:31.609Z,19.60
2023-03-10T18:32:59.963Z,19.00
2023-03-10T18:35:27.767Z,20.30
2023-03-10T18:37:55.918Z,19.03
2023-03-10T18:40:23.821Z,19.10
2023-03-10T18:42:53.174Z,19.80
2023-03-10T18:45:21.385Z,21.23
2023-03-10T18:47:49.416Z,19.93
2023-03-10T18:50:17.524Z,20.13
2023-03-10T18:52:46.451Z,19.57
2023-03-10T18:55:14.811Z,19.73
2023-03-10T18:57:44.188Z,20.10
2023-03-10T19:00:16.109Z,19.70
2023-03-10T19:02:43.862Z,19.23
2023-03-10T19:05:13.769Z,20.27
2023-03-10T19:07:41.819Z,20.53
2023-03-10T19:10:13.180Z,20.17
2023-03-10T19:12:41.336Z,18.50
2023-03-10T19:15:10.193Z,19.53
2023-03-10T19:17:39.558Z,17.97
2023-03-10T19:20:11.176Z,18.43
2023-03-10T19:22:39.853Z,17.53
2023-03-10T19:25:09.806Z,18.13
2023-03-10T19:27:39.776Z,17.10
2023-03-10T19:30:11.428Z,17.03
2023-03-10T19:32:40.677Z,17.70
2023-03-10T19:35:09.690Z,18.53
2023-03-10T19:37:38.460Z,17.97
2023-03-10T19:40:08.598Z,18.30
2023-03-10T19:42:38.937Z,17.63
2023-03-10T19:45:08.277Z,17.67
2023-03-10T19:47:35.992Z,17.13
2023-03-10T19:50:05.877Z,17.30
2023-03-10T19:52:33.651Z,16.43
2023-03-10T19:55:01.416Z,15.83
2023-03-10T19:57:29.110Z,17.07
2023-03-10T19:59:56.860Z,16.10
2023-03-10T20:02:25.850Z,15.47
2023-03-10T20:04:53.602Z,15.60
2023-03-10T20:07:22.558Z,15.83
2023-03-10T20:09:50.246Z,16.90
2023-03-10T20:12:18.051Z,16.77
2023-03-10T20:14:45.697Z,18.00
2023-03-10T20:17:13.377Z,17.53
2023-03-10T20:19:43.310Z,20.67
2023-03-10T20:22:13.716Z,21.77
2023-03-10T20:24:42.861Z,23.00
2023-03-10T20:27:11.139Z,22.10
2023-03-10T20:29:38.836Z,21.03
2023-03-10T20:32:07.556Z,20.00
2023-03-10T20:34:35.583Z,16.97
2023-03-10T20:37:03.329Z,18.40
2023-03-10T20:39:31.077Z,17.97
2023-03-10T20:42:00.099Z,18.23
2023-03-10T20:44:27.820Z,18.57
2023-03-10T20:46:55.609Z,17.07
2023-03-10T20:49:23.536Z,17.03
2023-03-10T20:51:51.295Z,16.33
2023-03-10T20:54:19.171Z,15.43
2023-03-10T20:56:46.981Z,16.93
2023-03-10T20:59:15.980Z,16.17
2023-03-10T21:01:43.785Z,15.47
2023-03-10T21:04:11.489Z,15.27
2023-03-10T21:06:39.613Z,16.40
2023-03-10T21:09:07.416Z,14.77
2023-03-10T21:11:35.734Z,14.97
2023-03-10T21:14:03.728Z,14.63
2023-03-10T21:16:33.703Z,14.63
2023-03-10T21:19:01.373Z,14.90
2023-03-10T21:21:31.495Z,13.30
2023-03-10T21:23:59.229Z,14.37
2023-03-10T21:26:26.936Z,14.87
2023-03-10T21:28:55.068Z,14.23
2023-03-10T21:31:23.180Z,14.07
2023-03-10T21:33:52.351Z,14.30
2023-03-10T21:36:23.305Z,13.90
2023-03-10T21:38:52.544Z,14.37
2023-03-10T21:41:22.818Z,14.00
2023-03-10T21:43:50.870Z,14.63
2023-03-10T21:46:18.635Z,14.57
2023-03-10T21:48:46.866Z,15.40
2023-03-10T21:51:18.443Z,15.80
2023-03-10T21:53:46.731Z,15.93
2023-03-10T21:56:17.511Z,15.17
2023-03-10T21:58:45.896Z,16.83
2023-03-10T22:01:15.018Z,16.53
2023-03-10T22:03:42.973Z,16.87
2023-03-10T22:06:11.147Z,17.37
2023-03-10T22:08:40.754Z,16.43
2023-03-10T22:11:09.195Z,16.40
2023-03-10T22:13:38.305Z,16.73
2023-03-10T22:16:08.130Z,16.53
2023-03-10T22:18:35.936Z,16.27
2023-03-10T22:21:03.710Z,16.67
2023-03-10T22:23:31.443Z,15.27
2023-03-10T22:26:00.528Z,15.63
2023-03-10T22:28:28.469Z,16.10
2023-03-10T22:30:56.123Z,15.53
2023-03-10T22:33:23.874Z,16.87
2023-03-10T22:35:52.337Z,15.63
2023-03-10T22:38:20.825Z,16.07
2023-03-10T22:40:49.264Z,16.23
2023-03-10T22:43:18.618Z,18.13
2023-03-10T22:45:46.916Z,17.10
2023-03-10T22:48:14.639Z,16.43
2023-03-10T22:50:46.540Z,16.67
2023-03-10T22:53:15.608Z,17.87
2023-03-10T22:55:43.695Z,17.30
2023-03-10T22:58:11.947Z,16.00
2023-03-10T23:00:42.663Z,16.83
2023-03-10T23:03:11.515Z,17.80
2023-03-10T23:05:39.374Z,17.17
2023-03-10T23:08:07.114Z,16.63
2023-03-10T23:10:36.535Z,16.30
2023-03-10T23:13:06.389Z,16.83
2023-03-10T23:15:37.277Z,16.80
2023-03-10T23:18:07.811Z,17.10
2023-03-10T23:20:37.323Z,17.23
2023-03-10T23:23:06.908Z,17.57
2023-03-10T23:25:37.255Z,16.70
2023-03-10T23:28:06.933Z,16.03
2023-03-10T23:30:36.441Z,16.97
2023-03-10T23:33:04.306Z,16.90
2023-03-10T23:35:34.790Z,16.67
2023-03-10T23:38:04.204Z,16.70
2023-03-10T23:40:32.535Z,18.27
2023-03-10T23:43:01.759Z,18.10
2023-03-10T23:45:31.319Z,18.43
2023-03-10T23:48:01.210Z,18.67
2023-03-10T23:50:31.050Z,19.77
2023-03-10T23:53:00.628Z,18.07
2023-03-10T23:55:31.066Z,18.67
2023-03-10T23:57:58.823Z,20.00
